Veghel, Netherlands
Current Conditions -  °F | °C
As of 1:55 AM on Sunday 23 Nov 2014 (Local Time) from EHVK Reporting Station
Overcast Overcast  
Wind Chill: 46°   Ceiling: 16000
Heat Index: 46°   Visibility: 6mi
Dew Point: 45°   Wind: 3mph
Humidity: 93%   Direction: 150°SSE
Pressure: 30.06"   Gusts: NA
Location:  51.62°N, 5.55°E
Report Text: EHVK 230055Z AUTO 15003KT 9999 OVC160 08/07 Q1018 BLU
Loading
Personal Weather Stations






























Interactive Weather Map New forecast layout! Learn more

10-Day Weather Forecast

Advertisements
Track Severe Weather on mobile